Portada
METAR-TAF:

METAR-TAF

Aeroports :

Al-Kuwait, Kuwait

latitud: 29-13N, longitud: 047-59E, altitud: 55 m

Observació

L'informe es va fer fa 1 hora i 24 minuts, a les 22:00 UTC
Vent 5 kt del Oest/Nord-Oest
Temperatura 20°C
Humitat 88%
Pressió 1016 hPa
Visibilitat: 7000 m
Escasses núvols a una alçada de 4000 ft
Cel ennuvolat a una alçada de 8000 ft
pluja

METAR: OKBK 302200Z 29005KT 7000 -RA FEW040 BKN080 20/18 Q1016 NOSIG

Hora: 02:24 (23:24 UTC)

Pronòstic

L'informe es va fer fa 6 hores i 24 minuts, a les 17:00 UTC
Pronòstic vàlid del 30 a les 18 UTC al 01 a les 24 UTC
Vent 3 kt amb direcció variable
Visibilitat: 7000 m
Escasses núvols a una alçada de 4000 ft
Cel ennuvolat a una alçada de 8000 ft
Temporalment
l' 01 a les 00 UTC al 01 a les 03 UTC
Visibilitat: 4000 m
boirina
Evolucionant progressivament
l' 01 a les 04 UTC al 01 a les 06 UTC
Vent 10 kt del Nord/Nord-Oest

TAF: OKBK 301700Z 3018/0124 VRB03KT 7000 FEW040 BKN080 TEMPO 0100/0103 4000 BR BECMG 0104/0106 34010KT

Observacions i pronòstics meteorològics de més de 4000 aeroports (METAR i TAF).

Les estacions disponibles són els punts grocs i vermells al mapa.

Posi el ratolí al punt desitjat per veure el nom de l'estació.

Feu clic per veure les observacions i els pronòstics meteorològics.

Per canviar el mapa: feu clic els botons verds amb una creu de color negre per apropar; al botó verd amb un guió per allunyar la imatge; o en les fletxes verdes per a mapes adjacents.


METAR-TAF: